Lorida, Florida
Current Conditions -  °F | °C
As of 4:35 AM on Friday 24 Oct 2014 (Local Time) from KBOW Reporting Station
Clear Clear  
Wind Chill: 63°   Ceiling: Unl
Heat Index: 63°   Visibility: 10mi
Dew Point: 55°   Wind: 8mph
Humidity: 77%   Direction: 20°NNE
Pressure: 29.96"   Gusts: NA
Location:  27.44°N, 81.25°W
Report Text: KBOW 240835Z AUTO 02007KT 10SM CLR 17/13 A2996 RMK AO2
Loading
Personal Weather Stations






























Interactive Weather Map
Tropical Storm Tracking
New forecast layout! Learn more

10-Day Weather Forecast

Advertisements
Track Severe Weather on mobile